Time;durP1;ratioP1;P1;durP2;ratioP2;P2;SDS_P1;SDS_P2;PMS_P1;PMS_P2;Temp;Humidity;BMP_temperature;BMP_pressure;BME280_temperature;BME280_humidity;BME280_pressure;Samples;Min_cycle;Max_cycle;Signal;HPM_P1;HPM_P2
2022/07/02 00:01:30;;;;;;;10.80;1.90;;;;;;;;;;5063659;28;20075;-70
2022/07/02 00:04:01;;;;;;;9.00;2.40;;;;;;;;;;5059875;28;20048;-71
2022/07/02 00:06:30;;;;;;;11.63;2.70;;;;;;;;;;5054723;28;20053;-70
2022/07/02 00:08:57;;;;;;;9.80;2.20;;;;;;;;;;5061279;28;20052;-70
2022/07/02 00:11:25;;;;;;;11.10;2.15;;;;;;;;;;5058556;28;20048;-70
2022/07/02 00:13:53;;;;;;;12.30;1.88;;;;;;;;;;5059397;28;20048;-70
2022/07/02 00:16:20;;;;;;;15.43;2.92;;;;;;;;;;5057281;28;20404;-70
2022/07/02 00:18:47;;;;;;;8.40;2.00;;;;;;;;;;5065691;28;20060;-70
2022/07/02 00:21:16;;;;;;;12.38;2.20;;;;;;;;;;5057112;28;20376;-70
2022/07/02 00:23:44;;;;;;;10.13;2.03;;;;;;;;;;5063153;28;20106;-71
2022/07/02 00:26:16;;;;;;;12.05;2.83;;;;;;;;;;5063385;28;20048;-70
2022/07/02 00:28:43;;;;;;;14.25;2.17;;;;;;;;;;5059950;28;20480;-70
2022/07/02 00:31:11;;;;;;;9.40;2.40;;;;;;;;;;5058663;28;20045;-70
2022/07/02 00:33:39;;;;;;;8.43;1.70;;;;;;;;;;5058177;28;20487;-70
2022/07/02 00:36:06;;;;;;;9.70;1.98;;;;;;;;;;5052006;28;20446;-70
2022/07/02 00:38:35;;;;;;;8.93;2.13;;;;;;;;;;5058175;28;20052;-70
2022/07/02 00:41:03;;;;;;;9.50;1.90;;;;;;;;;;5055839;28;20056;-70
2022/07/02 00:43:30;;;;;;;10.18;2.63;;;;;;;;;;5057502;28;20400;-70
2022/07/02 00:45:58;;;;;;;12.20;2.10;;;;;;;;;;5057734;28;20060;-70
2022/07/02 00:48:26;;;;;;;10.73;2.15;;;;;;;;;;5057035;28;20041;-70
2022/07/02 00:50:53;;;;;;;9.10;2.00;;;;;;;;;;5054523;28;20049;-70
2022/07/02 00:53:20;;;;;;;11.82;2.10;;;;;;;;;;5053067;28;20049;-70
2022/07/02 00:55:56;;;;;;;8.68;2.00;;;;;;;;;;5056473;28;20048;-70
2022/07/02 00:58:24;;;;;;;8.73;1.70;;;;;;;;;;5051891;28;20049;-70
2022/07/02 01:00:51;;;;;;;12.63;2.00;;;;;;;;;;5054804;28;20045;-70
2022/07/02 01:03:19;;;;;;;6.60;1.60;;;;;;;;;;5055337;28;20053;-70
2022/07/02 01:05:47;;;;;;;8.32;1.50;;;;;;;;;;5054238;28;20056;-70
2022/07/02 01:11:02;;;;;;;10.38;2.30;;;;;;;;;;5054555;28;20055;-70
2022/07/02 01:13:35;;;;;;;9.57;1.80;;;;;;;;;;5056671;28;20052;-70
2022/07/02 01:16:03;;;;;;;7.32;1.52;;;;;;;;;;5055845;28;20056;-70
2022/07/02 01:18:30;;;;;;;7.13;1.45;;;;;;;;;;5054925;28;20067;-70
2022/07/02 01:20:57;;;;;;;8.45;1.40;;;;;;;;;;5055034;28;20060;-70
2022/07/02 01:23:26;;;;;;;8.35;1.50;;;;;;;;;;5051313;28;20272;-70
2022/07/02 01:25:54;;;;;;;9.60;1.73;;;;;;;;;;5057036;28;20048;-70
2022/07/02 01:28:21;;;;;;;9.40;1.40;;;;;;;;;;5050544;28;20053;-70
2022/07/02 01:30:49;;;;;;;9.40;1.85;;;;;;;;;;5054085;28;20052;-70
2022/07/02 01:33:16;;;;;;;12.55;1.85;;;;;;;;;;5059412;28;20079;-70
2022/07/02 01:35:43;;;;;;;8.63;2.00;;;;;;;;;;5054896;28;20057;-70
2022/07/02 01:38:10;;;;;;;6.57;1.23;;;;;;;;;;5054986;28;21217;-70
2022/07/02 01:40:39;;;;;;;7.38;1.50;;;;;;;;;;5054721;28;20094;-70
2022/07/02 01:43:06;;;;;;;8.88;1.70;;;;;;;;;;5053650;28;20219;-70
2022/07/02 01:45:33;;;;;;;7.57;1.83;;;;;;;;;;5054749;28;20071;-70
2022/07/02 01:48:00;;;;;;;9.38;1.75;;;;;;;;;;5054832;28;20138;-71
2022/07/02 01:50:28;;;;;;;9.25;2.08;;;;;;;;;;5058075;28;20102;-70
2022/07/02 01:52:56;;;;;;;9.70;2.15;;;;;;;;;;5053787;28;20052;-70
2022/07/02 01:55:24;;;;;;;4.18;1.10;;;;;;;;;;5049409;28;20519;-70
2022/07/02 01:57:53;;;;;;;4.80;1.20;;;;;;;;;;5053730;28;20613;-70
2022/07/02 02:00:20;;;;;;;9.98;1.20;;;;;;;;;;5055656;28;20095;-70
2022/07/02 02:02:48;;;;;;;7.13;1.30;;;;;;;;;;5054551;28;20208;-70
2022/07/02 02:05:15;;;;;;;5.65;1.30;;;;;;;;;;5055445;28;20059;-70
2022/07/02 02:07:42;;;;;;;7.15;1.38;;;;;;;;;;5052076;28;20052;-70
2022/07/02 02:10:10;;;;;;;7.65;1.30;;;;;;;;;;5054607;28;20472;-70
2022/07/02 02:12:37;;;;;;;10.80;2.00;;;;;;;;;;5053355;28;20055;-70
2022/07/02 02:15:06;;;;;;;10.60;1.52;;;;;;;;;;5057565;28;20779;-70
2022/07/02 02:17:33;;;;;;;9.63;1.40;;;;;;;;;;5058535;28;20063;-70
2022/07/02 02:20:01;;;;;;;11.65;1.70;;;;;;;;;;5053458;28;20857;-70
2022/07/02 02:22:28;;;;;;;13.95;2.22;;;;;;;;;;5061372;28;20064;-70
2022/07/02 02:24:55;;;;;;;9.32;2.58;;;;;;;;;;5056553;28;20053;-70
2022/07/02 02:27:22;;;;;;;10.02;1.70;;;;;;;;;;5057382;28;20056;-70
2022/07/02 02:29:49;;;;;;;7.57;2.00;;;;;;;;;;5055036;28;20369;-70
2022/07/02 02:32:18;;;;;;;13.20;1.67;;;;;;;;;;5054247;28;20517;-70
2022/07/02 02:34:45;;;;;;;11.65;1.90;;;;;;;;;;5054091;28;20044;-70
2022/07/02 02:37:12;;;;;;;9.02;1.83;;;;;;;;;;5051217;28;20056;-70
2022/07/02 02:39:41;;;;;;;11.60;2.20;;;;;;;;;;5056476;28;20067;-70
2022/07/02 02:42:08;;;;;;;13.40;1.98;;;;;;;;;;5055006;28;20044;-71
2022/07/02 02:44:35;;;;;;;7.80;1.80;;;;;;;;;;5050033;28;20110;-71
2022/07/02 02:47:02;;;;;;;8.55;1.88;;;;;;;;;;5053122;28;20056;-71
2022/07/02 02:49:31;;;;;;;9.85;2.03;;;;;;;;;;5055187;28;20045;-70
2022/07/02 02:51:58;;;;;;;10.00;2.30;;;;;;;;;;5056158;28;20488;-70
2022/07/02 02:54:25;;;;;;;12.10;1.67;;;;;;;;;;5057855;28;20121;-70
2022/07/02 02:56:52;;;;;;;7.50;1.88;;;;;;;;;;5055726;28;20056;-71
2022/07/02 02:59:20;;;;;;;14.30;2.05;;;;;;;;;;5057634;28;20098;-71
2022/07/02 03:01:47;;;;;;;9.25;2.00;;;;;;;;;;5058695;28;20731;-70
2022/07/02 03:04:14;;;;;;;11.77;2.25;;;;;;;;;;5058168;28;20059;-70
2022/07/02 03:06:43;;;;;;;11.10;1.90;;;;;;;;;;5056992;28;20056;-71
2022/07/02 03:09:10;;;;;;;9.73;2.03;;;;;;;;;;5052722;28;20553;-70
2022/07/02 03:11:37;;;;;;;5.40;1.83;;;;;;;;;;5061846;28;20060;-70
2022/07/02 03:14:04;;;;;;;12.98;1.90;;;;;;;;;;5059094;28;20052;-70
2022/07/02 03:16:31;;;;;;;9.43;2.00;;;;;;;;;;5054300;28;20060;-70
2022/07/02 03:18:59;;;;;;;9.23;2.05;;;;;;;;;;5057349;28;20053;-71
2022/07/02 03:21:26;;;;;;;9.27;2.20;;;;;;;;;;5056517;28;20671;-71
2022/07/02 03:23:54;;;;;;;8.82;2.03;;;;;;;;;;5060996;28;20044;-71
2022/07/02 03:26:22;;;;;;;10.38;2.25;;;;;;;;;;5053633;28;20111;-71
2022/07/02 03:28:49;;;;;;;8.65;2.30;;;;;;;;;;5058606;28;20041;-71
2022/07/02 03:31:16;;;;;;;9.60;2.10;;;;;;;;;;5060999;28;20056;-71
2022/07/02 03:33:43;;;;;;;12.02;2.00;;;;;;;;;;5058314;28;20049;-70
2022/07/02 03:36:11;;;;;;;8.55;1.85;;;;;;;;;;5057138;28;20055;-70
2022/07/02 03:38:39;;;;;;;14.15;2.03;;;;;;;;;;5058837;28;20056;-70
2022/07/02 03:41:08;;;;;;;8.18;1.80;;;;;;;;;;5061390;28;20141;-70
2022/07/02 03:43:35;;;;;;;9.13;2.17;;;;;;;;;;5060055;28;20045;-70
2022/07/02 03:46:03;;;;;;;11.10;1.73;;;;;;;;;;5056621;28;20148;-70
2022/07/02 03:48:30;;;;;;;10.00;2.10;;;;;;;;;;5054459;28;20048;-71
2022/07/02 03:50:57;;;;;;;10.93;1.90;;;;;;;;;;5061743;28;20111;-71
2022/07/02 03:53:24;;;;;;;10.38;2.53;;;;;;;;;;5058344;28;20511;-71
2022/07/02 03:55:52;;;;;;;7.95;1.80;;;;;;;;;;5058044;28;20843;-71
2022/07/02 03:58:21;;;;;;;13.00;1.88;;;;;;;;;;5052123;28;20113;-71
2022/07/02 04:00:48;;;;;;;9.23;2.13;;;;;;;;;;5056038;28;20483;-70
2022/07/02 04:03:15;;;;;;;8.48;2.00;;;;;;;;;;5057298;28;20094;-70
2022/07/02 04:05:43;;;;;;;11.52;2.25;;;;;;;;;;5059259;28;20920;-70
2022/07/02 04:08:10;;;;;;;10.23;2.10;;;;;;;;;;5055247;28;20056;-70
2022/07/02 04:10:37;;;;;;;7.60;1.90;;;;;;;;;;5057462;28;20049;-70
2022/07/02 04:13:04;;;;;;;13.25;2.10;;;;;;;;;;5057089;28;20068;-70
2022/07/02 04:15:33;;;;;;;8.38;1.77;;;;;;;;;;5058485;28;20064;-70
2022/07/02 04:18:00;;;;;;;9.85;2.00;;;;;;;;;;5055602;28;20048;-70
2022/07/02 04:20:27;;;;;;;8.98;2.10;;;;;;;;;;5059440;28;20114;-70
2022/07/02 04:22:55;;;;;;;8.95;2.10;;;;;;;;;;5051144;28;20044;-70
2022/07/02 04:25:22;;;;;;;7.18;1.90;;;;;;;;;;5054938;28;20491;-70
2022/07/02 04:27:49;;;;;;;8.93;1.98;;;;;;;;;;5055286;28;20044;-70
2022/07/02 04:30:16;;;;;;;9.93;2.38;;;;;;;;;;5058177;28;20044;-70
2022/07/02 04:32:45;;;;;;;10.18;1.77;;;;;;;;;;5056508;28;20049;-70
2022/07/02 04:35:12;;;;;;;9.05;1.95;;;;;;;;;;5058351;28;20059;-70
2022/07/02 04:37:40;;;;;;;13.65;2.53;;;;;;;;;;5063243;28;20465;-70
2022/07/02 04:40:08;;;;;;;15.15;2.17;;;;;;;;;;5059901;28;20101;-70
2022/07/02 04:42:35;;;;;;;9.40;2.10;;;;;;;;;;5064355;28;20157;-70
2022/07/02 04:45:02;;;;;;;13.00;2.17;;;;;;;;;;5060428;28;20055;-70
2022/07/02 04:47:30;;;;;;;18.83;2.55;;;;;;;;;;5063502;28;20114;-70
2022/07/02 04:49:58;;;;;;;8.00;2.30;;;;;;;;;;5059753;28;20065;-70
2022/07/02 04:52:25;;;;;;;8.55;2.03;;;;;;;;;;5060284;28;20056;-70
2022/07/02 04:54:53;;;;;;;9.82;2.33;;;;;;;;;;5060921;28;20053;-70
2022/07/02 04:57:20;;;;;;;11.07;2.53;;;;;;;;;;5062337;28;20106;-70
2022/07/02 04:59:47;;;;;;;14.70;2.30;;;;;;;;;;5054084;28;20552;-70
2022/07/02 05:02:14;;;;;;;7.68;2.20;;;;;;;;;;5060181;28;20053;-70
2022/07/02 05:04:42;;;;;;;5.95;2.00;;;;;;;;;;5051598;28;20052;-70
2022/07/02 05:07:10;;;;;;;12.50;2.45;;;;;;;;;;5060881;28;20056;-70
2022/07/02 05:09:37;;;;;;;11.63;2.25;;;;;;;;;;5062582;28;20051;-70
2022/07/02 05:12:05;;;;;;;8.93;2.38;;;;;;;;;;5055311;28;20680;-70
2022/07/02 05:14:32;;;;;;;8.88;2.20;;;;;;;;;;5063676;28;20060;-70
2022/07/02 05:16:59;;;;;;;13.48;2.30;;;;;;;;;;5059066;28;20044;-70
2022/07/02 05:19:27;;;;;;;12.77;2.78;;;;;;;;;;5058490;28;20048;-70
2022/07/02 05:21:54;;;;;;;10.07;2.45;;;;;;;;;;5053613;28;20495;-70
2022/07/02 05:24:23;;;;;;;7.65;2.30;;;;;;;;;;5060345;28;20052;-71
2022/07/02 05:26:50;;;;;;;8.35;2.28;;;;;;;;;;5053899;28;20499;-71
2022/07/02 05:29:17;;;;;;;7.93;2.30;;;;;;;;;;5058590;28;20788;-70
2022/07/02 05:31:44;;;;;;;8.98;2.65;;;;;;;;;;5054914;28;20048;-70
2022/07/02 05:34:12;;;;;;;11.75;2.25;;;;;;;;;;5059466;28;20126;-70
2022/07/02 05:36:39;;;;;;;8.90;2.58;;;;;;;;;;5056007;28;20465;-70
2022/07/02 05:39:06;;;;;;;9.38;2.00;;;;;;;;;;5059265;28;20052;-70
2022/07/02 05:41:34;;;;;;;9.10;2.00;;;;;;;;;;5048701;28;20048;-70
2022/07/02 05:44:02;;;;;;;10.38;2.05;;;;;;;;;;5053800;28;21184;-70
2022/07/02 05:46:29;;;;;;;12.77;2.03;;;;;;;;;;5050690;28;21008;-70
2022/07/02 05:48:56;;;;;;;11.70;2.75;;;;;;;;;;5054198;28;20049;-70
2022/07/02 05:51:23;;;;;;;7.80;2.30;;;;;;;;;;5048022;28;20052;-70
2022/07/02 05:53:51;;;;;;;12.05;2.28;;;;;;;;;;5048613;28;20052;-70
2022/07/02 05:56:18;;;;;;;12.82;2.22;;;;;;;;;;5052562;28;20322;-70
2022/07/02 05:58:46;;;;;;;11.48;2.00;;;;;;;;;;5059732;28;20056;-70
2022/07/02 06:01:14;;;;;;;9.25;1.80;;;;;;;;;;5057128;28;20422;-70
2022/07/02 06:03:41;;;;;;;13.30;2.42;;;;;;;;;;5053523;28;20052;-70
2022/07/02 06:08:53;;;;;;;10.68;2.08;;;;;;;;;;5058497;28;20064;-70
2022/07/02 06:11:20;;;;;;;12.23;2.47;;;;;;;;;;5055409;28;20110;-71
2022/07/02 06:13:49;;;;;;;8.63;1.92;;;;;;;;;;5058469;28;20084;-70
2022/07/02 06:16:16;;;;;;;9.95;1.90;;;;;;;;;;5064105;28;20113;-70
2022/07/02 06:18:43;;;;;;;8.73;2.00;;;;;;;;;;5062771;28;20058;-70
2022/07/02 06:21:10;;;;;;;12.07;2.35;;;;;;;;;;5063647;28;20048;-70
2022/07/02 06:23:38;;;;;;;10.55;2.05;;;;;;;;;;5066337;28;20056;-70
2022/07/02 06:26:05;;;;;;;10.65;1.80;;;;;;;;;;5065747;28;20059;-70
2022/07/02 06:28:32;;;;;;;10.38;1.42;;;;;;;;;;5064493;28;20041;-71
2022/07/02 06:31:01;;;;;;;8.82;1.88;;;;;;;;;;5063227;28;20048;-70
2022/07/02 06:33:28;;;;;;;13.93;2.10;;;;;;;;;;5060281;28;20045;-70
2022/07/02 06:35:55;;;;;;;15.25;1.90;;;;;;;;;;5061154;28;20491;-70
2022/07/02 06:38:22;;;;;;;12.23;2.15;;;;;;;;;;5060570;28;20044;-70
2022/07/02 06:40:49;;;;;;;6.15;1.65;;;;;;;;;;5052490;28;20045;-70
2022/07/02 06:43:17;;;;;;;11.15;2.10;;;;;;;;;;5057757;28;20053;-70
2022/07/02 06:45:45;;;;;;;15.05;2.15;;;;;;;;;;5055654;28;20069;-69
2022/07/02 06:48:13;;;;;;;13.10;1.60;;;;;;;;;;5055477;28;20049;-69
2022/07/02 06:50:40;;;;;;;8.50;1.23;;;;;;;;;;5055473;28;20453;-70
2022/07/02 06:53:07;;;;;;;10.48;1.58;;;;;;;;;;5055813;28;20064;-70
2022/07/02 06:55:35;;;;;;;8.90;1.70;;;;;;;;;;5054587;28;20604;-69
2022/07/02 06:58:02;;;;;;;11.38;1.67;;;;;;;;;;5051542;28;20055;-69
2022/07/02 07:00:29;;;;;;;10.32;2.03;;;;;;;;;;5055764;28;20040;-69
2022/07/02 07:02:56;;;;;;;14.02;2.13;;;;;;;;;;5055720;28;20040;-70
2022/07/02 07:05:25;;;;;;;9.45;1.67;;;;;;;;;;5055288;28;20060;-70
2022/07/02 07:07:52;;;;;;;13.27;1.83;;;;;;;;;;5056223;28;20887;-70
2022/07/02 07:10:19;;;;;;;8.98;1.55;;;;;;;;;;5053582;28;20048;-69
2022/07/02 07:12:46;;;;;;;7.40;1.33;;;;;;;;;;5053531;28;20057;-69
2022/07/02 07:15:14;;;;;;;9.02;1.92;;;;;;;;;;5055535;28;20465;-69
2022/07/02 07:17:41;;;;;;;10.50;1.80;;;;;;;;;;5054192;28;20432;-70
2022/07/02 07:20:16;;;;;;;9.65;1.77;;;;;;;;;;5063341;28;20048;-70
2022/07/02 07:22:44;;;;;;;9.40;1.70;;;;;;;;;;5065632;28;20056;-70
2022/07/02 07:25:12;;;;;;;8.50;1.38;;;;;;;;;;5063872;28;20060;-70
2022/07/02 07:27:39;;;;;;;8.63;1.88;;;;;;;;;;5064588;28;20052;-69
2022/07/02 07:30:07;;;;;;;11.25;1.63;;;;;;;;;;5061509;28;20052;-69
2022/07/02 07:32:34;;;;;;;7.75;1.40;;;;;;;;;;5062362;28;20121;-70
2022/07/02 07:35:01;;;;;;;8.70;1.80;;;;;;;;;;5058570;28;20714;-70
2022/07/02 07:37:28;;;;;;;7.80;1.30;;;;;;;;;;5060223;28;20044;-70
2022/07/02 07:39:57;;;;;;;6.20;1.15;;;;;;;;;;5068889;28;20053;-70
2022/07/02 07:42:25;;;;;;;8.50;1.50;;;;;;;;;;5065112;28;20163;-70
2022/07/02 07:44:52;;;;;;;8.32;1.40;;;;;;;;;;5063800;28;20060;-72
2022/07/02 07:47:19;;;;;;;10.63;1.58;;;;;;;;;;5066878;28;20071;-70
2022/07/02 07:49:47;;;;;;;7.65;1.15;;;;;;;;;;5064755;28;20060;-74
2022/07/02 07:52:14;;;;;;;9.50;1.65;;;;;;;;;;5057147;28;20068;-71
2022/07/02 07:54:41;;;;;;;10.30;1.60;;;;;;;;;;5059782;28;20671;-71
2022/07/02 07:57:10;;;;;;;10.48;1.70;;;;;;;;;;5057080;28;20102;-70
2022/07/02 07:59:37;;;;;;;8.75;1.23;;;;;;;;;;5058250;28;20041;-70
2022/07/02 08:02:04;;;;;;;7.63;1.50;;;;;;;;;;5061288;28;20053;-70
2022/07/02 08:04:31;;;;;;;9.00;1.50;;;;;;;;;;5057486;28;20169;-71
2022/07/02 08:06:59;;;;;;;17.60;5.55;;;;;;;;;;5059245;28;20060;-70
2022/07/02 08:09:26;;;;;;;7.00;1.77;;;;;;;;;;5058219;28;20056;-71
2022/07/02 08:11:53;;;;;;;8.38;1.67;;;;;;;;;;5058572;28;20419;-71
2022/07/02 08:14:22;;;;;;;6.97;1.40;;;;;;;;;;5056350;28;20106;-71
2022/07/02 08:16:49;;;;;;;7.13;1.30;;;;;;;;;;5060778;28;20075;-70
2022/07/02 08:19:16;;;;;;;11.13;1.50;;;;;;;;;;5061675;28;20156;-70
2022/07/02 08:21:43;;;;;;;5.03;1.10;;;;;;;;;;5059579;28;20044;-71
2022/07/02 08:24:10;;;;;;;5.20;1.10;;;;;;;;;;5056490;28;20049;-71
2022/07/02 08:32:25;;;;;;;5.13;1.33;;;;;;;;;;5034228;23;20053;-70
2022/07/02 08:34:53;;;;;;;8.10;1.30;;;;;;;;;;4979141;28;20163;-71
2022/07/02 08:37:20;;;;;;;6.07;1.60;;;;;;;;;;5002649;28;20051;-71
2022/07/02 08:39:47;;;;;;;11.43;1.63;;;;;;;;;;5001153;28;20045;-71
2022/07/02 08:42:17;;;;;;;7.60;3.28;;;;;;;;;;5001325;28;20060;-71
2022/07/02 08:44:45;;;;;;;4.47;1.20;;;;;;;;;;4999521;28;20041;-71
2022/07/02 08:47:12;;;;;;;7.60;1.40;;;;;;;;;;4999962;28;20058;-71
2022/07/02 08:49:41;;;;;;;6.82;1.55;;;;;;;;;;5002335;28;20065;-71
2022/07/02 08:52:08;;;;;;;12.02;1.67;;;;;;;;;;5002087;28;20054;-71
2022/07/02 08:54:36;;;;;;;4.97;1.00;;;;;;;;;;5010175;28;20049;-71
2022/07/02 08:57:04;;;;;;;6.93;1.35;;;;;;;;;;5000285;28;20050;-72
2022/07/02 09:23:28;;;;;;;21.00;10.02;;;;;;;;;;5672786;23;20054;-71
2022/07/02 09:25:56;;;;;;;5.57;1.30;;;;;;;;;;4979971;28;20054;-71
2022/07/02 09:28:23;;;;;;;3.72;1.08;;;;;;;;;;4984110;28;20080;-71
2022/07/02 09:30:50;;;;;;;4.10;0.93;;;;;;;;;;4988332;28;20053;-71
2022/07/02 09:33:31;;;;;;;6.22;1.30;;;;;;;;;;4983034;28;20104;-71
2022/07/02 09:35:59;;;;;;;7.03;1.35;;;;;;;;;;4986063;28;20058;-71
2022/07/02 09:42:05;;;;;;;8.63;1.45;;;;;;;;;;4979086;28;20065;-71
2022/07/02 09:44:33;;;;;;;7.32;1.20;;;;;;;;;;4975022;28;20046;-71
2022/07/02 09:47:00;;;;;;;5.50;1.17;;;;;;;;;;4978705;28;20057;-71
2022/07/02 09:49:27;;;;;;;5.25;1.10;;;;;;;;;;4981148;28;20046;-71
2022/07/02 09:55:24;;;;;;;5.70;1.20;;;;;;;;;;4973381;28;20033;-71
2022/07/02 09:57:54;;;;;;;6.07;1.23;;;;;;;;;;4977615;28;20050;-71
2022/07/02 10:00:22;;;;;;;5.25;0.98;;;;;;;;;;4979372;28;20054;-71
2022/07/02 10:02:53;;;;;;;3.22;1.13;;;;;;;;;;4985831;28;20054;-71
2022/07/02 10:05:24;;;;;;;4.78;1.05;;;;;;;;;;4983812;28;20084;-71
2022/07/02 10:07:53;;;;;;;4.95;0.88;;;;;;;;;;4986791;28;20061;-71
2022/07/02 10:10:22;;;;;;;4.13;1.02;;;;;;;;;;4986695;28;20681;-71
2022/07/02 10:12:49;;;;;;;3.40;1.13;;;;;;;;;;4989167;28;20049;-71
2022/07/02 10:15:21;;;;;;;3.63;1.15;;;;;;;;;;4988873;28;20501;-71
2022/07/02 10:17:49;;;;;;;6.78;1.17;;;;;;;;;;4984632;28;20047;-71
2022/07/02 10:20:17;;;;;;;8.10;1.02;;;;;;;;;;4985924;28;20058;-71
2022/07/02 10:51:20;;;;;;;4.25;0.90;;;;;;;;;;4982234;28;20037;-71
2022/07/02 10:53:49;;;;;;;7.47;0.95;;;;;;;;;;4983407;28;20042;-71
2022/07/02 10:56:17;;;;;;;7.07;1.10;;;;;;;;;;4993885;28;20079;-71
2022/07/02 11:04:08;;;;;;;5.25;1.10;;;;;;;;;;5407998;23;20051;-72
2022/07/02 11:06:37;;;;;;;5.70;1.42;;;;;;;;;;4932166;29;20062;-71
2022/07/02 11:12:46;;;;;;;4.80;1.35;;;;;;;;;;5143491;22;20042;-72
2022/07/02 11:15:18;;;;;;;3.07;1.00;;;;;;;;;;4953283;28;20058;-71
2022/07/02 11:17:49;;;;;;;5.72;1.30;;;;;;;;;;4976102;23;20089;-72
2022/07/02 11:20:23;;;;;;;5.90;1.20;;;;;;;;;;4949968;28;20581;-72
2022/07/02 11:25:29;;;;;;;5.18;1.10;;;;;;;;;;5762626;23;20412;-71
2022/07/02 11:30:44;;;;;;;3.85;1.00;;;;;;;;;;1079568;23;20300;-69
2022/07/02 11:33:14;;;;;;;3.03;1.10;;;;;;;;;;5255583;23;20061;-72
2022/07/02 11:35:43;;;;;;;3.88;1.00;;;;;;;;;;4991236;28;20788;-71
2022/07/02 11:38:10;;;;;;;3.40;1.00;;;;;;;;;;5013592;28;20068;-72
2022/07/02 11:40:39;;;;;;;9.02;1.27;;;;;;;;;;5016626;28;20061;-72
2022/07/02 11:43:14;;;;;;;3.20;1.30;;;;;;;;;;5012370;28;20055;-72
2022/07/02 11:45:43;;;;;;;3.45;0.95;;;;;;;;;;5013015;28;20106;-71
2022/07/02 11:48:19;;;;;;;5.95;0.95;;;;;;;;;;5017430;28;20041;-71
2022/07/02 11:50:46;;;;;;;6.13;1.00;;;;;;;;;;5017121;28;20457;-71
2022/07/02 11:53:14;;;;;;;5.10;1.00;;;;;;;;;;5015385;28;20045;-72
2022/07/02 11:55:43;;;;;;;5.25;1.00;;;;;;;;;;5018035;28;20743;-71
2022/07/02 11:58:10;;;;;;;5.50;1.30;;;;;;;;;;5014245;28;20157;-71
2022/07/02 12:00:37;;;;;;;5.05;1.33;;;;;;;;;;5017667;28;20057;-72
2022/07/02 12:03:11;;;;;;;3.80;1.05;;;;;;;;;;5016314;28;20052;-71
2022/07/02 12:05:38;;;;;;;4.72;1.20;;;;;;;;;;5014573;28;20056;-72
2022/07/02 12:08:07;;;;;;;5.32;1.25;;;;;;;;;;5012022;28;20049;-72
2022/07/02 12:10:39;;;;;;;5.32;1.13;;;;;;;;;;5585648;23;20057;-71
2022/07/02 12:13:10;;;;;;;6.03;1.33;;;;;;;;;;5005111;22;20045;-71
2022/07/02 12:18:25;;;;;;;4.05;0.95;;;;;;;;;;5363105;23;20057;-76
2022/07/02 12:26:04;;;;;;;1.48;0.70;;;;;;;;;;5038597;22;20715;-76
2022/07/02 12:31:18;;;;;;;6.43;0.98;;;;;;;;;;5015866;28;20053;-74
2022/07/02 12:33:45;;;;;;;3.75;0.90;;;;;;;;;;5015523;28;20136;-76
2022/07/02 12:36:12;;;;;;;2.60;0.85;;;;;;;;;;5017229;28;20064;-77
2022/07/02 12:38:43;;;;;;;3.40;0.77;;;;;;;;;;5014064;28;20049;-76
2022/07/02 12:41:10;;;;;;;3.75;1.02;;;;;;;;;;5010937;28;20068;-75
2022/07/02 12:43:39;;;;;;;6.35;1.05;;;;;;;;;;5019944;28;20087;-76
2022/07/02 12:46:06;;;;;;;2.50;1.30;;;;;;;;;;5014069;28;20052;-75
2022/07/02 12:48:43;;;;;;;4.45;1.00;;;;;;;;;;5014188;28;20049;-77
2022/07/02 12:51:10;;;;;;;2.97;0.80;;;;;;;;;;5014189;28;20784;-77
2022/07/02 12:53:38;;;;;;;4.53;0.80;;;;;;;;;;5015270;28;20057;-77
2022/07/02 12:56:06;;;;;;;4.30;1.17;;;;;;;;;;5014428;28;20568;-77
2022/07/02 12:58:34;;;;;;;3.72;0.90;;;;;;;;;;5170374;23;20774;-76
2022/07/02 13:01:02;;;;;;;2.40;0.90;;;;;;;;;;5012895;28;20135;-75
2022/07/02 13:03:30;;;;;;;4.28;1.00;;;;;;;;;;5018032;28;20045;-76
2022/07/02 13:05:58;;;;;;;3.55;0.90;;;;;;;;;;5020093;28;20049;-76
2022/07/02 13:08:26;;;;;;;4.45;0.80;;;;;;;;;;5010257;28;20656;-77
2022/07/02 13:10:55;;;;;;;8.00;0.88;;;;;;;;;;5013312;28;20049;-75
2022/07/02 13:13:23;;;;;;;2.90;0.80;;;;;;;;;;5020617;28;20056;-76
2022/07/02 13:15:50;;;;;;;4.22;0.90;;;;;;;;;;5016639;28;20051;-75
2022/07/02 13:18:19;;;;;;;2.90;1.23;;;;;;;;;;5020874;28;20099;-76
2022/07/02 13:20:46;;;;;;;3.50;1.15;;;;;;;;;;5012431;28;20059;-78
2022/07/02 13:23:14;;;;;;;3.03;0.90;;;;;;;;;;5006878;28;20049;-76
2022/07/02 13:25:42;;;;;;;4.55;0.80;;;;;;;;;;5022942;28;20052;-77
2022/07/02 13:28:09;;;;;;;2.75;0.80;;;;;;;;;;5020740;28;20057;-77
2022/07/02 13:30:36;;;;;;;4.47;0.90;;;;;;;;;;5017349;28;20048;-78
2022/07/02 13:33:04;;;;;;;3.50;0.88;;;;;;;;;;5018812;28;20056;-77
2022/07/02 13:35:33;;;;;;;4.00;0.80;;;;;;;;;;5016193;28;20045;-76
2022/07/02 13:38:00;;;;;;;3.30;0.82;;;;;;;;;;5016636;28;20683;-77
2022/07/02 13:40:27;;;;;;;7.20;0.90;;;;;;;;;;5015669;28;20053;-78
2022/07/02 13:42:55;;;;;;;4.80;0.80;;;;;;;;;;5008603;28;20056;-76
2022/07/02 13:45:22;;;;;;;5.28;1.08;;;;;;;;;;5013632;28;20513;-76
2022/07/02 13:47:49;;;;;;;2.45;0.70;;;;;;;;;;5014705;28;20652;-77
2022/07/02 13:50:17;;;;;;;4.10;1.05;;;;;;;;;;5014006;28;20056;-77
2022/07/02 13:52:45;;;;;;;4.32;0.93;;;;;;;;;;5018652;28;20041;-76
2022/07/02 13:55:12;;;;;;;3.97;1.20;;;;;;;;;;5019303;28;20072;-76
2022/07/02 13:57:40;;;;;;;2.55;0.95;;;;;;;;;;5014204;28;20057;-76
2022/07/02 14:00:08;;;;;;;2.75;0.80;;;;;;;;;;5016084;28;20107;-77
2022/07/02 14:02:35;;;;;;;1.95;0.80;;;;;;;;;;5019088;28;20044;-76
2022/07/02 14:05:03;;;;;;;3.45;0.85;;;;;;;;;;5019771;28;20057;-78
2022/07/02 14:07:30;;;;;;;4.78;0.90;;;;;;;;;;5019396;28;20049;-76
2022/07/02 14:09:59;;;;;;;2.72;0.70;;;;;;;;;;5016970;28;20049;-77
2022/07/02 14:12:26;;;;;;;1.90;0.70;;;;;;;;;;5013577;28;20128;-78
2022/07/02 14:14:53;;;;;;;4.25;0.70;;;;;;;;;;5015544;28;20901;-76
2022/07/02 14:17:21;;;;;;;3.08;0.95;;;;;;;;;;5011942;28;20142;-76
2022/07/02 14:19:48;;;;;;;3.50;1.05;;;;;;;;;;5017121;28;20052;-77
2022/07/02 14:22:18;;;;;;;3.03;0.77;;;;;;;;;;5015630;28;20041;-75
2022/07/02 14:24:45;;;;;;;3.90;0.88;;;;;;;;;;5011378;28;20128;-75
2022/07/02 14:27:14;;;;;;;3.72;1.10;;;;;;;;;;5013077;28;20045;-77
2022/07/02 14:29:41;;;;;;;3.40;0.75;;;;;;;;;;5014937;28;20060;-77
2022/07/02 14:32:08;;;;;;;2.13;0.85;;;;;;;;;;5019713;28;20045;-76
2022/07/02 14:34:36;;;;;;;3.95;1.05;;;;;;;;;;5013280;28;20053;-76
2022/07/02 14:37:03;;;;;;;3.00;0.85;;;;;;;;;;5018957;28;20059;-78
2022/07/02 14:39:31;;;;;;;3.53;0.90;;;;;;;;;;5016947;28;20053;-77
2022/07/02 14:41:58;;;;;;;2.20;0.80;;;;;;;;;;5021393;28;20139;-76
2022/07/02 14:44:26;;;;;;;2.45;0.93;;;;;;;;;;5014586;28;20049;-77
2022/07/02 14:46:54;;;;;;;3.28;0.90;;;;;;;;;;5014481;28;20788;-78
2022/07/02 14:49:21;;;;;;;4.22;0.98;;;;;;;;;;5020845;28;20048;-77
2022/07/02 14:51:48;;;;;;;3.65;1.00;;;;;;;;;;5019477;28;20050;-76
2022/07/02 14:54:15;;;;;;;2.33;0.90;;;;;;;;;;5022877;28;20555;-76
2022/07/02 14:56:43;;;;;;;3.10;1.13;;;;;;;;;;5021880;28;20049;-77
2022/07/02 14:59:12;;;;;;;2.72;0.90;;;;;;;;;;5004645;28;20053;-79
2022/07/02 15:01:41;;;;;;;2.80;0.65;;;;;;;;;;5007819;28;20107;-78
2022/07/02 15:04:08;;;;;;;4.25;1.13;;;;;;;;;;5002769;28;20132;-76
2022/07/02 15:06:36;;;;;;;3.28;1.20;;;;;;;;;;4998120;28;20045;-76
2022/07/02 15:09:03;;;;;;;3.10;1.10;;;;;;;;;;4997793;28;20068;-77
2022/07/02 15:11:31;;;;;;;3.75;0.93;;;;;;;;;;5000210;28;20056;-76
2022/07/02 15:16:45;;;;;;;3.72;1.10;;;;;;;;;;4998927;28;20052;-77
2022/07/02 15:19:12;;;;;;;3.15;1.15;;;;;;;;;;4992148;28;20120;-75
2022/07/02 15:21:43;;;;;;;2.83;1.17;;;;;;;;;;5000857;28;20045;-72
2022/07/02 15:24:12;;;;;;;3.63;1.10;;;;;;;;;;4993148;28;20623;-74
2022/07/02 15:26:40;;;;;;;2.45;0.98;;;;;;;;;;5000107;28;20646;-74
2022/07/02 15:29:08;;;;;;;5.05;1.00;;;;;;;;;;4999669;28;20049;-73
2022/07/02 15:31:36;;;;;;;4.43;1.15;;;;;;;;;;5002365;28;20064;-74
2022/07/02 15:34:05;;;;;;;3.45;1.13;;;;;;;;;;5000639;28;20107;-73
2022/07/02 15:36:33;;;;;;;2.97;0.95;;;;;;;;;;4997867;28;20076;-74
2022/07/02 15:39:01;;;;;;;2.45;0.90;;;;;;;;;;4991778;28;20058;-74
2022/07/02 15:41:29;;;;;;;1.63;0.70;;;;;;;;;;5000930;28;20129;-75
2022/07/02 15:43:57;;;;;;;2.85;1.00;;;;;;;;;;4992844;28;20033;-72
2022/07/02 15:46:25;;;;;;;3.17;1.17;;;;;;;;;;5001320;28;20064;-73
2022/07/02 15:48:54;;;;;;;5.60;1.40;;;;;;;;;;5002361;28;20049;-75
2022/07/02 15:51:25;;;;;;;2.72;0.95;;;;;;;;;;5001358;28;20053;-76
2022/07/02 15:53:55;;;;;;;4.22;1.00;;;;;;;;;;5005331;28;20049;-75
2022/07/02 15:56:23;;;;;;;2.95;0.98;;;;;;;;;;4990482;28;20491;-74
2022/07/02 15:58:51;;;;;;;3.67;0.98;;;;;;;;;;4996800;28;21136;-75
2022/07/02 16:01:19;;;;;;;4.22;1.15;;;;;;;;;;5007811;28;20060;-75
2022/07/02 16:03:51;;;;;;;2.22;1.23;;;;;;;;;;4993857;28;20053;-74
2022/07/02 16:06:20;;;;;;;2.42;1.30;;;;;;;;;;5004504;28;20131;-73
2022/07/02 16:08:50;;;;;;;2.63;1.10;;;;;;;;;;5000924;28;20096;-74
2022/07/02 16:11:17;;;;;;;2.63;1.10;;;;;;;;;;5001937;28;20046;-74
2022/07/02 16:13:45;;;;;;;10.25;1.33;;;;;;;;;;4999504;28;20057;-74
2022/07/02 16:16:13;;;;;;;4.28;1.38;;;;;;;;;;4999270;28;20116;-74
2022/07/02 16:18:40;;;;;;;4.97;1.40;;;;;;;;;;4997395;28;20061;-73
2022/07/02 16:21:09;;;;;;;3.22;1.00;;;;;;;;;;4990659;28;20061;-73
2022/07/02 16:23:37;;;;;;;2.85;1.08;;;;;;;;;;5001251;28;20041;-73